CAO3126 KLAX-MMSM
Flight info
| Callsign | CAO3126 |
|---|---|
| Flight time | 2h 55m |
| Altitude | 33000 |
| Route | PNDAH2 OTAYY DCT TIJ UT18 GOLFO UQ103 AGU UJ33 QET UT162 TOREO TOREO1A |
| Aircraft | B77L/H-SDE1E2E3FGHIJ2J3J4J5M1RWXY/LB1D1 |
Departure
| Time | 2026-05-08 23:33 |
|---|---|
| Airport | Los Angeles International Airport (KLAX) |
Arrival
| Time | 2026-05-09 02:29 |
|---|---|
| Airport | Felipe Ángeles International Airport (MMSM) |
| Time | Latitude | Longitude | Altitude | Speed | Heading |
|---|---|---|---|---|---|
| 2026-05-08 22:41 | 33.93379 | -118.39161 | 115 ft | 0 kts | 180° |
| 2026-05-08 23:18 | 33.93389 | -118.39161 | 115 ft | 2 kts | 180° |
| 2026-05-08 23:18 | 33.93404 | -118.39161 | 115 ft | 2 kts | 180° |
| 2026-05-08 23:18 | 33.93419 | -118.39161 | 115 ft | 2 kts | 180° |
| 2026-05-08 23:18 | 33.93435 | -118.39161 | 115 ft | 2 kts | 180° |
| 2026-05-08 23:19 | 33.93449 | -118.39161 | 115 ft | 2 kts | 180° |
| 2026-05-08 23:19 | 33.93464 | -118.39161 | 115 ft | 1 kts | 180° |
| 2026-05-08 23:19 | 33.93479 | -118.39162 | 115 ft | 2 kts | 165° |
| 2026-05-08 23:19 | 33.93493 | -118.39168 | 115 ft | 2 kts | 147° |
| 2026-05-08 23:20 | 33.93504 | -118.39180 | 115 ft | 2 kts | 131° |
| 2026-05-08 23:20 | 33.93513 | -118.39195 | 115 ft | 2 kts | 114° |
| 2026-05-08 23:20 | 33.93517 | -118.39211 | 115 ft | 2 kts | 97° |
| 2026-05-08 23:20 | 33.93517 | -118.39229 | 115 ft | 2 kts | 81° |
| 2026-05-08 23:21 | 33.93515 | -118.39246 | 115 ft | 0 kts | 83° |
| 2026-05-08 23:21 | 33.93515 | -118.39249 | 115 ft | 0 kts | 83° |
| 2026-05-08 23:23 | 33.93515 | -118.39248 | 115 ft | 0 kts | 83° |
| 2026-05-08 23:24 | 33.93516 | -118.39237 | 115 ft | 3 kts | 83° |
| 2026-05-08 23:24 | 33.93520 | -118.39195 | 115 ft | 7 kts | 83° |
| 2026-05-08 23:24 | 33.93528 | -118.39114 | 114 ft | 11 kts | 83° |
| 2026-05-08 23:24 | 33.93540 | -118.39002 | 113 ft | 15 kts | 83° |
| 2026-05-08 23:25 | 33.93554 | -118.38864 | 113 ft | 17 kts | 83° |
| 2026-05-08 23:25 | 33.93569 | -118.38717 | 112 ft | 18 kts | 83° |
| 2026-05-08 23:25 | 33.93584 | -118.38566 | 111 ft | 18 kts | 84° |
| 2026-05-08 23:25 | 33.93598 | -118.38429 | 111 ft | 13 kts | 83° |
| 2026-05-08 23:26 | 33.93605 | -118.38355 | 110 ft | 8 kts | 83° |
| 2026-05-08 23:26 | 33.93617 | -118.38304 | 110 ft | 4 kts | 59° |
| 2026-05-08 23:26 | 33.93623 | -118.38297 | 110 ft | 0 kts | 40° |
| 2026-05-08 23:31 | 33.93628 | -118.38293 | 110 ft | 2 kts | 31° |
| 2026-05-08 23:32 | 33.93654 | -118.38286 | 110 ft | 5 kts | 3° |
| 2026-05-08 23:32 | 33.93702 | -118.38290 | 110 ft | 7 kts | 353° |
| 2026-05-08 23:32 | 33.93730 | -118.38309 | 110 ft | 4 kts | 294° |
| 2026-05-08 23:32 | 33.93729 | -118.38359 | 110 ft | 8 kts | 262° |
| 2026-05-08 23:33 | 33.93705 | -118.38578 | 111 ft | 57 kts | 263° |
| 2026-05-08 23:33 | 33.93627 | -118.39352 | 116 ft | 127 kts | 263° |
| 2026-05-08 23:33 | 33.93493 | -118.40662 | 136 ft | 185 kts | 263° |
| 2026-05-08 23:33 | 33.93314 | -118.42261 | 728 ft | 196 kts | 261° |
| 2026-05-08 23:34 | 33.93134 | -118.43903 | 1559 ft | 200 kts | 263° |
| 2026-05-08 23:34 | 33.92894 | -118.45563 | 2129 ft | 206 kts | 251° |
| 2026-05-08 23:34 | 33.92191 | -118.47056 | 2654 ft | 215 kts | 233° |
| 2026-05-08 23:34 | 33.91206 | -118.48502 | 3047 ft | 232 kts | 233° |
| 2026-05-08 23:35 | 33.90174 | -118.50073 | 3556 ft | 247 kts | 233° |
| 2026-05-08 23:35 | 33.89063 | -118.51718 | 4049 ft | 263 kts | 233° |
| 2026-05-08 23:35 | 33.87908 | -118.53438 | 4702 ft | 270 kts | 233° |
| 2026-05-08 23:35 | 33.86557 | -118.55045 | 4935 ft | 275 kts | 213° |
| 2026-05-08 23:36 | 33.84764 | -118.55834 | 4956 ft | 276 kts | 186° |
| 2026-05-08 23:36 | 33.82849 | -118.55662 | 4980 ft | 278 kts | 169° |
| 2026-05-08 23:36 | 33.80970 | -118.55154 | 4976 ft | 277 kts | 167° |
| 2026-05-08 23:36 | 33.79044 | -118.54610 | 5080 ft | 290 kts | 168° |
| 2026-05-08 23:37 | 33.77114 | -118.54080 | 6080 ft | 284 kts | 168° |
| 2026-05-08 23:37 | 33.75227 | -118.53568 | 6962 ft | 282 kts | 168° |
| 2026-05-08 23:37 | 33.73309 | -118.53050 | 7659 ft | 286 kts | 168° |
| 2026-05-08 23:37 | 33.71384 | -118.52426 | 8344 ft | 289 kts | 156° |
| 2026-05-08 23:38 | 33.69705 | -118.51125 | 8992 ft | 292 kts | 135° |
| 2026-05-08 23:38 | 33.68477 | -118.49151 | 9644 ft | 295 kts | 119° |
| 2026-05-08 23:38 | 33.67519 | -118.46992 | 10281 ft | 300 kts | 117° |
| 2026-05-08 23:38 | 33.66548 | -118.44712 | 10640 ft | 317 kts | 117° |
| 2026-05-08 23:39 | 33.65511 | -118.42284 | 11006 ft | 333 kts | 117° |
| 2026-05-08 23:39 | 33.64440 | -118.39788 | 11395 ft | 348 kts | 117° |
| 2026-05-08 23:39 | 33.63310 | -118.37161 | 11807 ft | 363 kts | 117° |
| 2026-05-08 23:39 | 33.62130 | -118.34421 | 12211 ft | 378 kts | 117° |
| 2026-05-08 23:40 | 33.60897 | -118.31563 | 12627 ft | 392 kts | 117° |
| 2026-05-08 23:40 | 33.59621 | -118.28606 | 13195 ft | 402 kts | 117° |
| 2026-05-08 23:40 | 33.58345 | -118.25652 | 13929 ft | 406 kts | 117° |
| 2026-05-08 23:40 | 33.57038 | -118.22627 | 14741 ft | 409 kts | 117° |
| 2026-05-08 23:41 | 33.55740 | -118.19627 | 15519 ft | 413 kts | 117° |
| 2026-05-08 23:41 | 33.54414 | -118.16567 | 16253 ft | 418 kts | 117° |
| 2026-05-08 23:41 | 33.53077 | -118.13475 | 16983 ft | 422 kts | 117° |
| 2026-05-08 23:41 | 33.51722 | -118.10326 | 17716 ft | 426 kts | 117° |
| 2026-05-08 23:42 | 33.50372 | -118.07185 | 18459 ft | 430 kts | 116° |
| 2026-05-08 23:42 | 33.48992 | -118.03982 | 19176 ft | 434 kts | 117° |
| 2026-05-08 23:42 | 33.47536 | -118.00831 | 19858 ft | 439 kts | 122° |
| 2026-05-08 23:42 | 33.45669 | -117.97941 | 20468 ft | 445 kts | 132° |
| 2026-05-08 23:43 | 33.43431 | -117.95380 | 21114 ft | 451 kts | 137° |
| 2026-05-08 23:43 | 33.41072 | -117.92873 | 21809 ft | 454 kts | 138° |
| 2026-05-08 23:43 | 33.38711 | -117.90374 | 22434 ft | 458 kts | 138° |
| 2026-05-08 23:43 | 33.36315 | -117.87839 | 23037 ft | 463 kts | 138° |
| 2026-05-08 23:44 | 33.33885 | -117.85267 | 23605 ft | 468 kts | 138° |
| 2026-05-08 23:44 | 33.31434 | -117.82674 | 24180 ft | 472 kts | 138° |
| 2026-05-08 23:44 | 33.28975 | -117.80074 | 24753 ft | 476 kts | 138° |
| 2026-05-08 23:44 | 33.26493 | -117.77451 | 25363 ft | 480 kts | 138° |
| 2026-05-08 23:45 | 33.24003 | -117.74821 | 25955 ft | 484 kts | 138° |
| 2026-05-08 23:45 | 33.21482 | -117.72160 | 26528 ft | 488 kts | 138° |
| 2026-05-08 23:45 | 33.18931 | -117.69468 | 27084 ft | 492 kts | 138° |
| 2026-05-08 23:45 | 33.16360 | -117.66758 | 27655 ft | 496 kts | 138° |
| 2026-05-08 23:46 | 33.13806 | -117.63991 | 28225 ft | 500 kts | 136° |
| 2026-05-08 23:46 | 33.11265 | -117.61150 | 28741 ft | 505 kts | 136° |
| 2026-05-08 23:46 | 33.08672 | -117.58249 | 29305 ft | 509 kts | 136° |
| 2026-05-08 23:46 | 33.06094 | -117.55372 | 30033 ft | 509 kts | 136° |
| 2026-05-08 23:47 | 33.03548 | -117.52536 | 30859 ft | 506 kts | 136° |
| 2026-05-08 23:47 | 33.00981 | -117.49679 | 31664 ft | 502 kts | 136° |
| 2026-05-08 23:47 | 32.98444 | -117.46861 | 32327 ft | 501 kts | 136° |
| 2026-05-08 23:47 | 32.95900 | -117.44038 | 32882 ft | 501 kts | 136° |
| 2026-05-08 23:48 | 32.93330 | -117.41190 | 32994 ft | 504 kts | 136° |
| 2026-05-08 23:48 | 32.90754 | -117.38336 | 32996 ft | 501 kts | 136° |
| 2026-05-08 23:48 | 32.85619 | -117.32659 | 32994 ft | 498 kts | 137° |
| 2026-05-08 23:49 | 32.80529 | -117.27042 | 32994 ft | 499 kts | 137° |
| 2026-05-08 23:49 | 32.75436 | -117.21433 | 32992 ft | 497 kts | 137° |
| 2026-05-08 23:50 | 32.70341 | -117.15828 | 32998 ft | 499 kts | 137° |
| 2026-05-08 23:50 | 32.65286 | -117.10246 | 32994 ft | 497 kts | 134° |
| 2026-05-08 23:51 | 32.60675 | -117.04176 | 33002 ft | 497 kts | 131° |
| 2026-05-08 23:51 | 32.56073 | -116.98045 | 33006 ft | 497 kts | 131° |
| 2026-05-08 23:52 | 32.51953 | -116.91504 | 33003 ft | 495 kts | 122° |
| 2026-05-08 23:52 | 32.48267 | -116.84666 | 33004 ft | 494 kts | 122° |
| 2026-05-08 23:53 | 32.44530 | -116.77753 | 32996 ft | 496 kts | 122° |
| 2026-05-08 23:53 | 32.40806 | -116.70893 | 32998 ft | 495 kts | 122° |
| 2026-05-08 23:54 | 32.37063 | -116.64017 | 33011 ft | 494 kts | 122° |
| 2026-05-08 23:55 | 32.31467 | -116.53764 | 33036 ft | 495 kts | 122° |
| 2026-05-08 23:55 | 32.27738 | -116.46950 | 33056 ft | 495 kts | 122° |
| 2026-05-08 23:56 | 32.24000 | -116.40128 | 33089 ft | 494 kts | 122° |
| 2026-05-08 23:56 | 32.20267 | -116.33318 | 33135 ft | 493 kts | 122° |
| 2026-05-08 23:57 | 32.16558 | -116.26569 | 33152 ft | 494 kts | 123° |
| 2026-05-08 23:57 | 32.12795 | -116.19732 | 33155 ft | 493 kts | 123° |
| 2026-05-08 23:58 | 32.09077 | -116.12990 | 33176 ft | 494 kts | 123° |
| 2026-05-08 23:58 | 32.05341 | -116.06228 | 33186 ft | 493 kts | 123° |
| 2026-05-08 23:59 | 32.01588 | -115.99445 | 33186 ft | 493 kts | 123° |
| 2026-05-08 23:59 | 31.97858 | -115.92718 | 33181 ft | 493 kts | 123° |
| 2026-05-09 00:00 | 31.94105 | -115.85961 | 33176 ft | 493 kts | 123° |
| 2026-05-09 00:00 | 31.90348 | -115.79207 | 33163 ft | 494 kts | 123° |
| 2026-05-09 00:01 | 31.86597 | -115.72483 | 33146 ft | 493 kts | 123° |
| 2026-05-09 00:01 | 31.82799 | -115.65688 | 33125 ft | 494 kts | 123° |
| 2026-05-09 00:02 | 31.79029 | -115.58952 | 33081 ft | 494 kts | 123° |
| 2026-05-09 00:02 | 31.75280 | -115.52268 | 33036 ft | 493 kts | 123° |
| 2026-05-09 00:03 | 31.71485 | -115.45512 | 32993 ft | 494 kts | 123° |
| 2026-05-09 00:03 | 31.67698 | -115.38783 | 32976 ft | 494 kts | 123° |
| 2026-05-09 00:04 | 31.63905 | -115.32054 | 32947 ft | 494 kts | 123° |
| 2026-05-09 00:04 | 31.60114 | -115.25343 | 32939 ft | 494 kts | 123° |
| 2026-05-09 00:05 | 31.56309 | -115.18617 | 32931 ft | 495 kts | 123° |
| 2026-05-09 00:05 | 31.52525 | -115.11940 | 32908 ft | 493 kts | 123° |
| 2026-05-09 00:06 | 31.48721 | -115.05241 | 32865 ft | 495 kts | 123° |
| 2026-05-09 00:06 | 31.44923 | -114.98561 | 32816 ft | 494 kts | 123° |
| 2026-05-09 00:07 | 31.41116 | -114.91879 | 32816 ft | 494 kts | 123° |
| 2026-05-09 00:07 | 31.37317 | -114.85222 | 32819 ft | 495 kts | 123° |
| 2026-05-09 00:08 | 31.33493 | -114.78533 | 32819 ft | 494 kts | 123° |
| 2026-05-09 00:08 | 31.29690 | -114.71893 | 32816 ft | 492 kts | 123° |
| 2026-05-09 00:09 | 31.25877 | -114.65245 | 32819 ft | 493 kts | 123° |
| 2026-05-09 00:09 | 31.22081 | -114.58639 | 32818 ft | 493 kts | 123° |
| 2026-05-09 00:10 | 31.18265 | -114.52008 | 32820 ft | 493 kts | 123° |
| 2026-05-09 00:10 | 31.14432 | -114.45362 | 32821 ft | 493 kts | 123° |
| 2026-05-09 00:11 | 31.10623 | -114.38766 | 32822 ft | 492 kts | 123° |
| 2026-05-09 00:11 | 31.06762 | -114.32093 | 32824 ft | 492 kts | 124° |
| 2026-05-09 00:12 | 31.02600 | -114.25825 | 32826 ft | 492 kts | 128° |
| 2026-05-09 00:12 | 30.98346 | -114.19612 | 32827 ft | 491 kts | 128° |
| 2026-05-09 00:13 | 30.94085 | -114.13361 | 32829 ft | 493 kts | 128° |
| 2026-05-09 00:13 | 30.89836 | -114.07117 | 32837 ft | 493 kts | 128° |
| 2026-05-09 00:14 | 30.85578 | -114.00858 | 32839 ft | 493 kts | 128° |
| 2026-05-09 00:14 | 30.81347 | -113.94642 | 32840 ft | 492 kts | 128° |
| 2026-05-09 00:15 | 30.77089 | -113.88393 | 32842 ft | 492 kts | 128° |
| 2026-05-09 00:15 | 30.72843 | -113.82172 | 32842 ft | 491 kts | 128° |
| 2026-05-09 00:16 | 30.68605 | -113.75969 | 32838 ft | 492 kts | 127° |
| 2026-05-09 00:16 | 30.64338 | -113.69735 | 32832 ft | 491 kts | 128° |
| 2026-05-09 00:17 | 30.60110 | -113.63566 | 32827 ft | 492 kts | 128° |
| 2026-05-09 00:17 | 30.55844 | -113.57351 | 32826 ft | 492 kts | 128° |
| 2026-05-09 00:18 | 30.51578 | -113.51147 | 32826 ft | 491 kts | 128° |
| 2026-05-09 00:18 | 30.47345 | -113.44999 | 32829 ft | 491 kts | 127° |
| 2026-05-09 00:19 | 30.43061 | -113.38788 | 32830 ft | 491 kts | 127° |
| 2026-05-09 00:19 | 30.38815 | -113.32640 | 32837 ft | 491 kts | 128° |
| 2026-05-09 00:20 | 30.34529 | -113.26446 | 32838 ft | 491 kts | 128° |
| 2026-05-09 00:20 | 30.30269 | -113.20297 | 32838 ft | 490 kts | 128° |
| 2026-05-09 00:21 | 30.26008 | -113.14157 | 32840 ft | 489 kts | 128° |
| 2026-05-09 00:21 | 30.21753 | -113.08035 | 32840 ft | 489 kts | 128° |
| 2026-05-09 00:22 | 30.17487 | -113.01906 | 32841 ft | 489 kts | 128° |
| 2026-05-09 00:22 | 30.13230 | -112.95799 | 32847 ft | 490 kts | 128° |
| 2026-05-09 00:23 | 30.08925 | -112.89635 | 32847 ft | 491 kts | 128° |
| 2026-05-09 00:23 | 30.04864 | -112.83827 | 32844 ft | 491 kts | 128° |
| 2026-05-09 00:24 | 30.00572 | -112.77698 | 32847 ft | 491 kts | 128° |
| 2026-05-09 00:24 | 29.96290 | -112.71594 | 32846 ft | 491 kts | 128° |
| 2026-05-09 00:25 | 29.91995 | -112.65479 | 32862 ft | 491 kts | 128° |
| 2026-05-09 00:25 | 29.87689 | -112.59359 | 32875 ft | 491 kts | 128° |
| 2026-05-09 00:26 | 29.83396 | -112.53266 | 32891 ft | 492 kts | 128° |
| 2026-05-09 00:26 | 29.79072 | -112.47137 | 32898 ft | 492 kts | 128° |
| 2026-05-09 00:27 | 29.74761 | -112.41037 | 32903 ft | 492 kts | 128° |
| 2026-05-09 00:27 | 29.70438 | -112.34930 | 32904 ft | 492 kts | 129° |
| 2026-05-09 00:28 | 29.66096 | -112.28804 | 32907 ft | 493 kts | 129° |
| 2026-05-09 00:28 | 29.61776 | -112.22719 | 32910 ft | 494 kts | 129° |
| 2026-05-09 00:29 | 29.57452 | -112.16638 | 32915 ft | 493 kts | 129° |
| 2026-05-09 00:29 | 29.53094 | -112.10518 | 32918 ft | 493 kts | 129° |
| 2026-05-09 00:30 | 29.48766 | -112.04449 | 32911 ft | 494 kts | 129° |
| 2026-05-09 00:30 | 29.44410 | -111.98350 | 32907 ft | 492 kts | 129° |
| 2026-05-09 00:31 | 29.40062 | -111.92270 | 32889 ft | 495 kts | 129° |
| 2026-05-09 00:31 | 29.35704 | -111.86187 | 32876 ft | 494 kts | 129° |
| 2026-05-09 00:32 | 29.31327 | -111.80086 | 32867 ft | 494 kts | 129° |
| 2026-05-09 00:32 | 29.26971 | -111.74023 | 32851 ft | 493 kts | 129° |
| 2026-05-09 00:33 | 29.22606 | -111.67956 | 32850 ft | 494 kts | 129° |
| 2026-05-09 00:33 | 29.18261 | -111.61927 | 32841 ft | 492 kts | 129° |
| 2026-05-09 00:34 | 29.13883 | -111.55861 | 32841 ft | 495 kts | 129° |
| 2026-05-09 00:34 | 29.09513 | -111.49814 | 32835 ft | 494 kts | 129° |
| 2026-05-09 00:35 | 29.05142 | -111.43775 | 32834 ft | 496 kts | 129° |
| 2026-05-09 00:35 | 29.00742 | -111.37704 | 32830 ft | 495 kts | 129° |
| 2026-05-09 00:36 | 28.96341 | -111.31641 | 32824 ft | 496 kts | 129° |
| 2026-05-09 00:36 | 28.91932 | -111.25577 | 32834 ft | 498 kts | 129° |
| 2026-05-09 00:37 | 28.87505 | -111.19497 | 32831 ft | 497 kts | 130° |
| 2026-05-09 00:37 | 28.83103 | -111.13458 | 32836 ft | 497 kts | 130° |
| 2026-05-09 00:38 | 28.78667 | -111.07384 | 32839 ft | 498 kts | 130° |
| 2026-05-09 00:38 | 28.74241 | -111.01331 | 32841 ft | 499 kts | 130° |
| 2026-05-09 00:39 | 28.69794 | -110.95261 | 32853 ft | 501 kts | 130° |
| 2026-05-09 00:39 | 28.65330 | -110.89175 | 32868 ft | 501 kts | 130° |
| 2026-05-09 00:40 | 28.60841 | -110.83066 | 32868 ft | 504 kts | 130° |
| 2026-05-09 00:40 | 28.56357 | -110.76971 | 32863 ft | 504 kts | 130° |
| 2026-05-09 00:41 | 28.49624 | -110.67836 | 32867 ft | 504 kts | 130° |
| 2026-05-09 00:41 | 28.45121 | -110.61739 | 32870 ft | 505 kts | 130° |
| 2026-05-09 00:42 | 28.40584 | -110.55604 | 32868 ft | 506 kts | 130° |
| 2026-05-09 00:42 | 28.36059 | -110.49493 | 32859 ft | 506 kts | 130° |
| 2026-05-09 00:43 | 28.31536 | -110.43396 | 32852 ft | 507 kts | 130° |
| 2026-05-09 00:43 | 28.26980 | -110.37261 | 32855 ft | 507 kts | 130° |
| 2026-05-09 00:44 | 28.22439 | -110.31156 | 32846 ft | 507 kts | 131° |
| 2026-05-09 00:44 | 28.17900 | -110.25063 | 32852 ft | 507 kts | 131° |
| 2026-05-09 00:45 | 28.13370 | -110.18990 | 32841 ft | 508 kts | 131° |
| 2026-05-09 00:45 | 28.08804 | -110.12879 | 32836 ft | 507 kts | 131° |
| 2026-05-09 00:46 | 28.04234 | -110.06770 | 32828 ft | 510 kts | 132° |
| 2026-05-09 00:46 | 27.99634 | -110.00630 | 32817 ft | 509 kts | 132° |
| 2026-05-09 00:47 | 27.95045 | -109.94514 | 32815 ft | 511 kts | 132° |
| 2026-05-09 00:47 | 27.90456 | -109.88408 | 32816 ft | 511 kts | 132° |
| 2026-05-09 00:48 | 27.85876 | -109.82321 | 32825 ft | 511 kts | 132° |
| 2026-05-09 00:48 | 27.81255 | -109.76187 | 32834 ft | 511 kts | 132° |
| 2026-05-09 00:49 | 27.76649 | -109.70084 | 32842 ft | 513 kts | 132° |
| 2026-05-09 00:49 | 27.72047 | -109.63995 | 32868 ft | 513 kts | 133° |
| 2026-05-09 00:50 | 27.67390 | -109.57841 | 32875 ft | 514 kts | 133° |
| 2026-05-09 00:50 | 27.62776 | -109.51753 | 32882 ft | 515 kts | 133° |
| 2026-05-09 00:51 | 27.58089 | -109.45578 | 32885 ft | 516 kts | 133° |
| 2026-05-09 00:51 | 27.53434 | -109.39452 | 32877 ft | 513 kts | 133° |
| 2026-05-09 00:52 | 27.48773 | -109.33329 | 32855 ft | 515 kts | 134° |
| 2026-05-09 00:52 | 27.44123 | -109.27227 | 32845 ft | 514 kts | 134° |
| 2026-05-09 00:53 | 27.39460 | -109.21119 | 32849 ft | 516 kts | 134° |
| 2026-05-09 00:53 | 27.34791 | -109.15010 | 32865 ft | 515 kts | 134° |
| 2026-05-09 00:54 | 27.30134 | -109.08926 | 32863 ft | 515 kts | 134° |
| 2026-05-09 00:54 | 27.25435 | -109.02796 | 32844 ft | 518 kts | 134° |
| 2026-05-09 00:55 | 27.20766 | -108.96713 | 32867 ft | 517 kts | 135° |
| 2026-05-09 00:55 | 27.16067 | -108.90600 | 32911 ft | 518 kts | 135° |
| 2026-05-09 00:56 | 27.11381 | -108.84512 | 32933 ft | 516 kts | 135° |
| 2026-05-09 00:56 | 27.06633 | -108.78354 | 32931 ft | 520 kts | 135° |
| 2026-05-09 00:57 | 27.01930 | -108.72260 | 32907 ft | 517 kts | 135° |
| 2026-05-09 00:57 | 26.97212 | -108.66156 | 32893 ft | 515 kts | 135° |
| 2026-05-09 00:58 | 26.92493 | -108.60062 | 32896 ft | 521 kts | 135° |
| 2026-05-09 00:58 | 26.87735 | -108.53924 | 32893 ft | 520 kts | 135° |
| 2026-05-09 00:59 | 26.83007 | -108.47831 | 32889 ft | 519 kts | 136° |
| 2026-05-09 00:59 | 26.78242 | -108.41702 | 32903 ft | 521 kts | 136° |
| 2026-05-09 01:00 | 26.73512 | -108.35626 | 32902 ft | 522 kts | 136° |
| 2026-05-09 01:00 | 26.68766 | -108.29536 | 32917 ft | 519 kts | 136° |
| 2026-05-09 01:01 | 26.64005 | -108.23438 | 32959 ft | 521 kts | 136° |
| 2026-05-09 01:01 | 26.59223 | -108.17321 | 33002 ft | 525 kts | 136° |
| 2026-05-09 01:02 | 26.54449 | -108.11221 | 33033 ft | 521 kts | 137° |
| 2026-05-09 01:02 | 26.49668 | -108.05120 | 33052 ft | 520 kts | 137° |
| 2026-05-09 01:03 | 26.44857 | -107.98992 | 33077 ft | 522 kts | 137° |
| 2026-05-09 01:03 | 26.40107 | -107.92949 | 33093 ft | 523 kts | 137° |
| 2026-05-09 01:04 | 26.35290 | -107.86829 | 33091 ft | 519 kts | 137° |
| 2026-05-09 01:04 | 26.30531 | -107.80792 | 33072 ft | 523 kts | 137° |
| 2026-05-09 01:05 | 26.25727 | -107.74705 | 33016 ft | 523 kts | 137° |
| 2026-05-09 01:06 | 26.18537 | -107.65611 | 33074 ft | 524 kts | 137° |
| 2026-05-09 01:06 | 26.13750 | -107.59564 | 33115 ft | 520 kts | 138° |
| 2026-05-09 01:07 | 26.08944 | -107.53503 | 33111 ft | 521 kts | 138° |
| 2026-05-09 01:07 | 26.04166 | -107.47486 | 33107 ft | 518 kts | 138° |
| 2026-05-09 01:08 | 25.99386 | -107.41478 | 33086 ft | 523 kts | 138° |
| 2026-05-09 01:08 | 25.94594 | -107.35455 | 33091 ft | 518 kts | 139° |
| 2026-05-09 01:09 | 25.89749 | -107.29382 | 33125 ft | 522 kts | 139° |
| 2026-05-09 01:09 | 25.84963 | -107.23384 | 33123 ft | 522 kts | 139° |
| 2026-05-09 01:10 | 25.80158 | -107.17372 | 33151 ft | 518 kts | 139° |
| 2026-05-09 01:10 | 25.75357 | -107.11375 | 33170 ft | 520 kts | 139° |
| 2026-05-09 01:11 | 25.70553 | -107.05381 | 33222 ft | 519 kts | 139° |
| 2026-05-09 01:11 | 25.65770 | -106.99420 | 33264 ft | 517 kts | 139° |
| 2026-05-09 01:12 | 25.60958 | -106.93433 | 33263 ft | 519 kts | 139° |
| 2026-05-09 01:12 | 25.56175 | -106.87490 | 33283 ft | 518 kts | 139° |
| 2026-05-09 01:13 | 25.51358 | -106.81512 | 33311 ft | 518 kts | 139° |
| 2026-05-09 01:13 | 25.46580 | -106.75587 | 33321 ft | 517 kts | 139° |
| 2026-05-09 01:14 | 25.41764 | -106.69626 | 33309 ft | 516 kts | 139° |
| 2026-05-09 01:14 | 25.36965 | -106.63693 | 33288 ft | 515 kts | 140° |
| 2026-05-09 01:15 | 25.32200 | -106.57809 | 33295 ft | 515 kts | 140° |
| 2026-05-09 01:15 | 25.27405 | -106.51897 | 33285 ft | 516 kts | 139° |
| 2026-05-09 01:16 | 25.22620 | -106.46003 | 33314 ft | 513 kts | 140° |
| 2026-05-09 01:16 | 25.17814 | -106.40093 | 33323 ft | 514 kts | 139° |
| 2026-05-09 01:17 | 25.10675 | -106.31323 | 33353 ft | 512 kts | 140° |
| 2026-05-09 01:17 | 25.05893 | -106.25462 | 33339 ft | 513 kts | 140° |
| 2026-05-09 01:18 | 25.01117 | -106.19610 | 33381 ft | 508 kts | 140° |
| 2026-05-09 01:18 | 24.96361 | -106.13799 | 33359 ft | 513 kts | 140° |
| 2026-05-09 01:19 | 24.91601 | -106.07986 | 33365 ft | 510 kts | 140° |
| 2026-05-09 01:19 | 24.86776 | -106.02103 | 33370 ft | 512 kts | 140° |
| 2026-05-09 01:20 | 24.82020 | -105.96312 | 33362 ft | 511 kts | 140° |
| 2026-05-09 01:20 | 24.77237 | -105.90493 | 33350 ft | 512 kts | 140° |
| 2026-05-09 01:21 | 24.72496 | -105.84731 | 33347 ft | 506 kts | 140° |
| 2026-05-09 01:21 | 24.67720 | -105.78941 | 33360 ft | 511 kts | 139° |
| 2026-05-09 01:22 | 24.62963 | -105.73174 | 33372 ft | 509 kts | 139° |
| 2026-05-09 01:22 | 24.58185 | -105.67390 | 33376 ft | 508 kts | 140° |
| 2026-05-09 01:23 | 24.53446 | -105.61663 | 33389 ft | 512 kts | 139° |
| 2026-05-09 01:23 | 24.48648 | -105.55869 | 33388 ft | 509 kts | 140° |
| 2026-05-09 01:24 | 24.43879 | -105.50118 | 33391 ft | 511 kts | 140° |
| 2026-05-09 01:24 | 24.39093 | -105.44353 | 33386 ft | 507 kts | 139° |
| 2026-05-09 01:25 | 24.34323 | -105.38614 | 33388 ft | 509 kts | 140° |
| 2026-05-09 01:25 | 24.29586 | -105.32921 | 33372 ft | 506 kts | 140° |
| 2026-05-09 01:26 | 24.24813 | -105.27193 | 33384 ft | 505 kts | 140° |
| 2026-05-09 01:26 | 24.20075 | -105.21515 | 33386 ft | 507 kts | 140° |
| 2026-05-09 01:27 | 24.15306 | -105.15804 | 33402 ft | 507 kts | 140° |
| 2026-05-09 01:27 | 24.10582 | -105.10153 | 33404 ft | 505 kts | 140° |
| 2026-05-09 01:28 | 24.05824 | -105.04473 | 33410 ft | 509 kts | 140° |
| 2026-05-09 01:28 | 24.01015 | -104.98734 | 33419 ft | 506 kts | 140° |
| 2026-05-09 01:29 | 23.96252 | -104.93059 | 33416 ft | 506 kts | 139° |
| 2026-05-09 01:29 | 23.91506 | -104.87408 | 33394 ft | 504 kts | 140° |
| 2026-05-09 01:30 | 23.86727 | -104.81729 | 33387 ft | 507 kts | 139° |
| 2026-05-09 01:30 | 23.81998 | -104.76112 | 33378 ft | 504 kts | 139° |
| 2026-05-09 01:31 | 23.77237 | -104.70465 | 33376 ft | 504 kts | 140° |
| 2026-05-09 01:31 | 23.72464 | -104.64811 | 33380 ft | 506 kts | 140° |
| 2026-05-09 01:32 | 23.67699 | -104.59173 | 33364 ft | 506 kts | 140° |
| 2026-05-09 01:32 | 23.62929 | -104.53535 | 33344 ft | 506 kts | 140° |
| 2026-05-09 01:33 | 23.58147 | -104.47894 | 33446 ft | 514 kts | 139° |
| 2026-05-09 01:33 | 23.55712 | -104.45021 | 34182 ft | 512 kts | 140° |
| 2026-05-09 01:33 | 23.53337 | -104.42216 | 35122 ft | 505 kts | 140° |
| 2026-05-09 01:34 | 23.50947 | -104.39398 | 35347 ft | 503 kts | 140° |
| 2026-05-09 01:34 | 23.48576 | -104.36604 | 35359 ft | 498 kts | 140° |
| 2026-05-09 01:34 | 23.43885 | -104.31084 | 35358 ft | 494 kts | 140° |
| 2026-05-09 01:35 | 23.39183 | -104.25562 | 35372 ft | 496 kts | 140° |
| 2026-05-09 01:35 | 23.34499 | -104.20064 | 35375 ft | 496 kts | 140° |
| 2026-05-09 01:36 | 23.29802 | -104.14561 | 35373 ft | 496 kts | 140° |
| 2026-05-09 01:36 | 23.25126 | -104.09086 | 35376 ft | 496 kts | 140° |
| 2026-05-09 01:37 | 23.20418 | -104.03580 | 35371 ft | 496 kts | 140° |
| 2026-05-09 01:37 | 23.15728 | -103.98101 | 35356 ft | 496 kts | 140° |
| 2026-05-09 01:38 | 23.11047 | -103.92638 | 35344 ft | 494 kts | 140° |
| 2026-05-09 01:38 | 23.06362 | -103.87179 | 35343 ft | 496 kts | 140° |
| 2026-05-09 01:39 | 23.01682 | -103.81720 | 35343 ft | 493 kts | 140° |
| 2026-05-09 01:39 | 22.96982 | -103.76247 | 35364 ft | 496 kts | 140° |
| 2026-05-09 01:40 | 22.92288 | -103.70784 | 35364 ft | 493 kts | 140° |
| 2026-05-09 01:40 | 22.87580 | -103.65314 | 35373 ft | 494 kts | 140° |
| 2026-05-09 01:41 | 22.82866 | -103.59841 | 35362 ft | 496 kts | 139° |
| 2026-05-09 01:41 | 22.78171 | -103.54395 | 35353 ft | 496 kts | 140° |
| 2026-05-09 01:42 | 22.73441 | -103.48917 | 35341 ft | 497 kts | 139° |
| 2026-05-09 01:42 | 22.68747 | -103.43484 | 35361 ft | 494 kts | 139° |
| 2026-05-09 01:43 | 22.64024 | -103.38026 | 35374 ft | 497 kts | 139° |
| 2026-05-09 01:43 | 22.59304 | -103.32574 | 35362 ft | 495 kts | 140° |
| 2026-05-09 01:44 | 22.54609 | -103.27158 | 35367 ft | 493 kts | 140° |
| 2026-05-09 01:44 | 22.49893 | -103.21726 | 35354 ft | 494 kts | 140° |
| 2026-05-09 01:45 | 22.45154 | -103.16273 | 35342 ft | 496 kts | 139° |
| 2026-05-09 01:45 | 22.40416 | -103.10825 | 35341 ft | 497 kts | 139° |
| 2026-05-09 01:46 | 22.35679 | -103.05383 | 35322 ft | 494 kts | 140° |
| 2026-05-09 01:46 | 22.30946 | -102.99954 | 35317 ft | 496 kts | 139° |
| 2026-05-09 01:47 | 22.26216 | -102.94534 | 35335 ft | 496 kts | 139° |
| 2026-05-09 01:47 | 22.21486 | -102.89125 | 35351 ft | 495 kts | 139° |
| 2026-05-09 01:48 | 22.16757 | -102.83723 | 35362 ft | 496 kts | 139° |
| 2026-05-09 01:48 | 22.12041 | -102.78342 | 35372 ft | 493 kts | 139° |
| 2026-05-09 01:49 | 22.07289 | -102.72926 | 35383 ft | 496 kts | 139° |
| 2026-05-09 01:49 | 22.02552 | -102.67532 | 35376 ft | 495 kts | 139° |
| 2026-05-09 01:50 | 21.97806 | -102.62133 | 35369 ft | 494 kts | 139° |
| 2026-05-09 01:50 | 21.93061 | -102.56744 | 35343 ft | 497 kts | 139° |
| 2026-05-09 01:51 | 21.88346 | -102.51388 | 35330 ft | 493 kts | 139° |
| 2026-05-09 01:51 | 21.83579 | -102.45984 | 35281 ft | 496 kts | 139° |
| 2026-05-09 01:52 | 21.78867 | -102.40646 | 35241 ft | 496 kts | 139° |
| 2026-05-09 01:52 | 21.74133 | -102.35288 | 35208 ft | 493 kts | 139° |
| 2026-05-09 01:53 | 21.70049 | -102.29177 | 35193 ft | 507 kts | 122° |
| 2026-05-09 01:53 | 21.67109 | -102.22258 | 35196 ft | 510 kts | 118° |
| 2026-05-09 01:54 | 21.64231 | -102.15305 | 35218 ft | 510 kts | 118° |
| 2026-05-09 01:54 | 21.61344 | -102.08351 | 35262 ft | 511 kts | 119° |
| 2026-05-09 01:55 | 21.58448 | -102.01395 | 35285 ft | 511 kts | 118° |
| 2026-05-09 01:55 | 21.55553 | -101.94452 | 35315 ft | 509 kts | 118° |
| 2026-05-09 01:56 | 21.52645 | -101.87493 | 35316 ft | 510 kts | 118° |
| 2026-05-09 01:56 | 21.49735 | -101.80539 | 35311 ft | 510 kts | 118° |
| 2026-05-09 01:57 | 21.46830 | -101.73604 | 35304 ft | 510 kts | 118° |
| 2026-05-09 01:57 | 21.43922 | -101.66669 | 35328 ft | 510 kts | 118° |
| 2026-05-09 01:58 | 21.41020 | -101.59759 | 35351 ft | 508 kts | 118° |
| 2026-05-09 01:58 | 21.38125 | -101.52877 | 35375 ft | 509 kts | 118° |
| 2026-05-09 01:59 | 21.35207 | -101.45951 | 35397 ft | 508 kts | 118° |
| 2026-05-09 01:59 | 21.32286 | -101.39025 | 35396 ft | 508 kts | 118° |
| 2026-05-09 02:00 | 21.29025 | -101.32304 | 35401 ft | 504 kts | 127° |
| 2026-05-09 02:00 | 21.25295 | -101.25972 | 35394 ft | 503 kts | 127° |
| 2026-05-09 02:01 | 21.21565 | -101.19667 | 35373 ft | 504 kts | 127° |
| 2026-05-09 02:01 | 21.17812 | -101.13322 | 35364 ft | 502 kts | 126° |
| 2026-05-09 02:02 | 21.14068 | -101.07000 | 35338 ft | 503 kts | 127° |
| 2026-05-09 02:02 | 21.10318 | -101.00675 | 35332 ft | 504 kts | 126° |
| 2026-05-09 02:03 | 21.06570 | -100.94360 | 35326 ft | 503 kts | 126° |
| 2026-05-09 02:03 | 21.02819 | -100.88034 | 35312 ft | 501 kts | 126° |
| 2026-05-09 02:04 | 20.99074 | -100.81728 | 35309 ft | 503 kts | 126° |
| 2026-05-09 02:04 | 20.95332 | -100.75434 | 35301 ft | 502 kts | 126° |
| 2026-05-09 02:05 | 20.91589 | -100.69144 | 35305 ft | 501 kts | 126° |
| 2026-05-09 02:05 | 20.87826 | -100.62829 | 35317 ft | 501 kts | 126° |
| 2026-05-09 02:06 | 20.84101 | -100.56584 | 35329 ft | 503 kts | 126° |
| 2026-05-09 02:07 | 20.78462 | -100.47169 | 34054 ft | 500 kts | 125° |
| 2026-05-09 02:07 | 20.76600 | -100.44064 | 33462 ft | 497 kts | 125° |
| 2026-05-09 02:07 | 20.74743 | -100.40971 | 32748 ft | 496 kts | 125° |
| 2026-05-09 02:07 | 20.72874 | -100.37859 | 31971 ft | 498 kts | 125° |
| 2026-05-09 02:08 | 20.71007 | -100.34753 | 31166 ft | 500 kts | 125° |
| 2026-05-09 02:08 | 20.69110 | -100.31596 | 30584 ft | 495 kts | 125° |
| 2026-05-09 02:08 | 20.67267 | -100.28532 | 30125 ft | 489 kts | 125° |
| 2026-05-09 02:08 | 20.65447 | -100.25507 | 29616 ft | 485 kts | 125° |
| 2026-05-09 02:09 | 20.63640 | -100.22503 | 29097 ft | 481 kts | 125° |
| 2026-05-09 02:09 | 20.61851 | -100.19535 | 28575 ft | 476 kts | 125° |
| 2026-05-09 02:09 | 20.60148 | -100.16494 | 28064 ft | 473 kts | 121° |
| 2026-05-09 02:09 | 20.58588 | -100.13402 | 27544 ft | 470 kts | 120° |
| 2026-05-09 02:10 | 20.57045 | -100.10333 | 27018 ft | 466 kts | 120° |
| 2026-05-09 02:10 | 20.55522 | -100.07319 | 26503 ft | 462 kts | 120° |
| 2026-05-09 02:10 | 20.54006 | -100.04332 | 25987 ft | 459 kts | 120° |
| 2026-05-09 02:10 | 20.52497 | -100.01366 | 25458 ft | 455 kts | 120° |
| 2026-05-09 02:11 | 20.50989 | -99.98413 | 24928 ft | 452 kts | 120° |
| 2026-05-09 02:11 | 20.49492 | -99.95487 | 24399 ft | 449 kts | 120° |
| 2026-05-09 02:11 | 20.47986 | -99.92548 | 23852 ft | 446 kts | 121° |
| 2026-05-09 02:11 | 20.46508 | -99.89668 | 23323 ft | 443 kts | 120° |
| 2026-05-09 02:12 | 20.45052 | -99.86827 | 22806 ft | 440 kts | 120° |
| 2026-05-09 02:12 | 20.43587 | -99.83971 | 22286 ft | 437 kts | 121° |
| 2026-05-09 02:12 | 20.42145 | -99.81165 | 21793 ft | 434 kts | 120° |
| 2026-05-09 02:12 | 20.40696 | -99.78346 | 21275 ft | 432 kts | 120° |
| 2026-05-09 02:13 | 20.39265 | -99.75562 | 20737 ft | 430 kts | 120° |
| 2026-05-09 02:13 | 20.37824 | -99.72763 | 20192 ft | 429 kts | 120° |
| 2026-05-09 02:13 | 20.36400 | -99.69997 | 19652 ft | 427 kts | 120° |
| 2026-05-09 02:13 | 20.34977 | -99.67233 | 19094 ft | 426 kts | 120° |
| 2026-05-09 02:14 | 20.33555 | -99.64483 | 18442 ft | 423 kts | 121° |
| 2026-05-09 02:14 | 20.31979 | -99.61899 | 18187 ft | 407 kts | 126° |
| 2026-05-09 02:14 | 20.30417 | -99.59487 | 18161 ft | 388 kts | 126° |
| 2026-05-09 02:14 | 20.28909 | -99.57166 | 18111 ft | 371 kts | 126° |
| 2026-05-09 02:15 | 20.27471 | -99.54955 | 18042 ft | 355 kts | 127° |
| 2026-05-09 02:15 | 20.26103 | -99.52853 | 17993 ft | 339 kts | 127° |
| 2026-05-09 02:15 | 20.24784 | -99.50828 | 17769 ft | 330 kts | 127° |
| 2026-05-09 02:15 | 20.23481 | -99.48828 | 17337 ft | 328 kts | 127° |
| 2026-05-09 02:16 | 20.22170 | -99.46818 | 16787 ft | 330 kts | 126° |
| 2026-05-09 02:16 | 20.20991 | -99.44742 | 16300 ft | 330 kts | 110° |
| 2026-05-09 02:16 | 20.20612 | -99.42399 | 16160 ft | 317 kts | 86° |
| 2026-05-09 02:16 | 20.20972 | -99.40100 | 16154 ft | 322 kts | 80° |
| 2026-05-09 02:17 | 20.21030 | -99.37753 | 15823 ft | 320 kts | 101° |
| 2026-05-09 02:17 | 20.20246 | -99.35535 | 15054 ft | 327 kts | 127° |
| 2026-05-09 02:17 | 20.18615 | -99.33880 | 14740 ft | 314 kts | 153° |
| 2026-05-09 02:17 | 20.16646 | -99.32953 | 14497 ft | 305 kts | 162° |
| 2026-05-09 02:18 | 20.14679 | -99.32185 | 14105 ft | 304 kts | 162° |
| 2026-05-09 02:18 | 20.12664 | -99.31409 | 13688 ft | 304 kts | 162° |
| 2026-05-09 02:18 | 20.10690 | -99.30651 | 13327 ft | 302 kts | 162° |
| 2026-05-09 02:18 | 20.08732 | -99.29898 | 13195 ft | 297 kts | 162° |
| 2026-05-09 02:19 | 20.06791 | -99.29153 | 13169 ft | 294 kts | 162° |
| 2026-05-09 02:19 | 20.04862 | -99.28411 | 13167 ft | 289 kts | 162° |
| 2026-05-09 02:19 | 20.02983 | -99.27690 | 13160 ft | 289 kts | 162° |
| 2026-05-09 02:19 | 20.01090 | -99.26963 | 13164 ft | 284 kts | 162° |
| 2026-05-09 02:20 | 19.99254 | -99.26259 | 13170 ft | 277 kts | 162° |
| 2026-05-09 02:20 | 19.97442 | -99.25564 | 13178 ft | 276 kts | 162° |
| 2026-05-09 02:20 | 19.95615 | -99.24863 | 13174 ft | 277 kts | 162° |
| 2026-05-09 02:20 | 19.93795 | -99.24166 | 13167 ft | 277 kts | 162° |
| 2026-05-09 02:21 | 19.91985 | -99.23473 | 13184 ft | 276 kts | 162° |
| 2026-05-09 02:21 | 19.90154 | -99.22875 | 13187 ft | 275 kts | 170° |
| 2026-05-09 02:21 | 19.88239 | -99.22550 | 13016 ft | 276 kts | 176° |
| 2026-05-09 02:21 | 19.86329 | -99.22356 | 12735 ft | 275 kts | 176° |
| 2026-05-09 02:22 | 19.84445 | -99.22163 | 12472 ft | 271 kts | 176° |
| 2026-05-09 02:22 | 19.82576 | -99.21966 | 12217 ft | 266 kts | 176° |
| 2026-05-09 02:22 | 19.80754 | -99.21772 | 11987 ft | 260 kts | 175° |
| 2026-05-09 02:22 | 19.78966 | -99.21581 | 11755 ft | 254 kts | 175° |
| 2026-05-09 02:23 | 19.77231 | -99.21396 | 11529 ft | 247 kts | 175° |
| 2026-05-09 02:23 | 19.75522 | -99.21214 | 11309 ft | 241 kts | 175° |
| 2026-05-09 02:23 | 19.73875 | -99.21038 | 11108 ft | 233 kts | 175° |
| 2026-05-09 02:23 | 19.72291 | -99.20869 | 10880 ft | 225 kts | 174° |
| 2026-05-09 02:24 | 19.70761 | -99.20707 | 10676 ft | 216 kts | 174° |
| 2026-05-09 02:24 | 19.69285 | -99.20512 | 10477 ft | 207 kts | 164° |
| 2026-05-09 02:24 | 19.67985 | -99.19896 | 10313 ft | 205 kts | 151° |
| 2026-05-09 02:24 | 19.67348 | -99.19517 | 10224 ft | 206 kts | 150° |
| 2026-05-09 02:25 | 19.66518 | -99.18942 | 10079 ft | 206 kts | 137° |
| 2026-05-09 02:25 | 19.65702 | -99.17717 | 9881 ft | 204 kts | 110° |
| 2026-05-09 02:25 | 19.65522 | -99.16228 | 9729 ft | 205 kts | 84° |
| 2026-05-09 02:25 | 19.65742 | -99.14737 | 9498 ft | 204 kts | 80° |
| 2026-05-09 02:26 | 19.66058 | -99.13277 | 9249 ft | 201 kts | 67° |
| 2026-05-09 02:26 | 19.66796 | -99.12083 | 9156 ft | 189 kts | 53° |
| 2026-05-09 02:26 | 19.67585 | -99.10988 | 8996 ft | 184 kts | 51° |
| 2026-05-09 02:26 | 19.68416 | -99.09991 | 8777 ft | 175 kts | 49° |
| 2026-05-09 02:27 | 19.69213 | -99.09037 | 8569 ft | 171 kts | 50° |
| 2026-05-09 02:27 | 19.69986 | -99.08104 | 8347 ft | 168 kts | 49° |
| 2026-05-09 02:27 | 19.70773 | -99.07176 | 8098 ft | 167 kts | 49° |
| 2026-05-09 02:27 | 19.71532 | -99.06255 | 7900 ft | 166 kts | 50° |
| 2026-05-09 02:28 | 19.72284 | -99.05334 | 7723 ft | 165 kts | 50° |
| 2026-05-09 02:28 | 19.73043 | -99.04411 | 7505 ft | 166 kts | 50° |
| 2026-05-09 02:28 | 19.73786 | -99.03503 | 7380 ft | 147 kts | 49° |
| 2026-05-09 02:28 | 19.74356 | -99.02809 | 7381 ft | 102 kts | 49° |
| 2026-05-09 02:29 | 19.74723 | -99.02361 | 7383 ft | 62 kts | 49° |
| 2026-05-09 02:29 | 19.74871 | -99.02152 | 7384 ft | 28 kts | 64° |
| 2026-05-09 02:29 | 19.74918 | -99.01986 | 7384 ft | 20 kts | 79° |
| 2026-05-09 02:29 | 19.74929 | -99.01930 | 7384 ft | 2 kts | 77° |